createdAt,value
2019-06-08T00:00:34.614Z,20.32
2019-06-08T00:01:34.656Z,20.30
2019-06-08T00:02:34.622Z,20.27
2019-06-08T00:03:44.001Z,20.22
2019-06-08T00:04:34.563Z,20.24
2019-06-08T00:05:34.548Z,20.27
2019-06-08T00:06:34.526Z,20.24
2019-06-08T00:07:34.503Z,20.27
2019-06-08T00:08:34.506Z,20.26
2019-06-08T00:09:34.516Z,20.24
2019-06-08T00:10:34.496Z,20.22
2019-06-08T00:11:34.470Z,20.22
2019-06-08T00:12:34.459Z,20.15
2019-06-08T00:13:34.548Z,20.12
2019-06-08T00:14:34.457Z,20.12
2019-06-08T00:15:34.452Z,20.15
2019-06-08T00:16:34.429Z,20.11
2019-06-08T00:17:38.895Z,20.14
2019-06-08T00:18:34.367Z,20.14
2019-06-08T00:19:34.410Z,20.00
2019-06-08T00:20:34.378Z,20.03
2019-06-08T00:21:34.363Z,20.08
2019-06-08T00:22:34.327Z,20.02
2019-06-08T00:23:34.332Z,20.11
2019-06-08T00:24:34.315Z,20.08
2019-06-08T00:25:34.353Z,20.07
2019-06-08T00:26:34.300Z,20.07
2019-06-08T00:27:34.330Z,20.04
2019-06-08T00:28:34.280Z,20.03
2019-06-08T00:29:34.260Z,20.08
2019-06-08T00:30:35.243Z,20.03
2019-06-08T00:31:34.253Z,20.02
2019-06-08T00:32:34.250Z,20.08
2019-06-08T00:33:34.238Z,19.96
2019-06-08T00:34:34.236Z,20.04
2019-06-08T00:35:34.220Z,20.02
2019-06-08T00:36:34.198Z,20.00
2019-06-08T00:37:34.193Z,20.04
2019-06-08T00:38:34.176Z,19.99
2019-06-08T00:39:34.165Z,20.02
2019-06-08T00:40:34.156Z,19.94
2019-06-08T00:41:34.171Z,20.08
2019-06-08T00:42:34.178Z,20.07
2019-06-08T00:43:34.119Z,20.04
2019-06-08T00:44:43.512Z,19.97
2019-06-08T00:45:34.075Z,20.04
2019-06-08T00:46:34.099Z,19.92
2019-06-08T00:47:46.949Z,19.97
2019-06-08T00:48:35.091Z,20.02
2019-06-08T00:49:34.083Z,19.97
2019-06-08T00:50:34.043Z,19.93
2019-06-08T00:51:34.011Z,20.02
2019-06-08T00:52:34.067Z,19.96
2019-06-08T00:53:34.007Z,20.04
2019-06-08T00:54:34.022Z,19.94
2019-06-08T00:55:33.988Z,20.04
2019-06-08T00:56:33.993Z,20.08
2019-06-08T00:57:33.991Z,20.08
2019-06-08T00:58:33.958Z,20.07
2019-06-08T00:59:33.930Z,20.11
2019-06-08T01:00:33.959Z,20.19
2019-06-08T01:01:44.020Z,20.12
2019-06-08T01:02:44.077Z,20.14
2019-06-08T01:03:42.584Z,20.15
2019-06-08T01:04:33.877Z,20.24
2019-06-08T01:05:34.482Z,20.29
2019-06-08T01:06:43.139Z,20.24
2019-06-08T01:07:43.138Z,20.33
2019-06-08T01:08:33.855Z,20.30
2019-06-08T01:09:33.862Z,20.29
2019-06-08T01:10:33.820Z,20.26
2019-06-08T01:11:33.792Z,20.32
2019-06-08T01:12:33.797Z,20.27
2019-06-08T01:13:33.822Z,20.24
2019-06-08T01:14:33.777Z,20.36
2019-06-08T01:15:34.461Z,20.36
2019-06-08T01:16:33.838Z,20.37
2019-06-08T01:17:33.751Z,20.40
2019-06-08T01:18:33.754Z,20.36
2019-06-08T01:19:33.766Z,20.36
2019-06-08T01:20:33.710Z,20.48
2019-06-08T01:21:33.726Z,20.48
2019-06-08T01:22:33.706Z,20.46
2019-06-08T01:23:33.685Z,20.46
2019-06-08T01:24:33.747Z,20.52
2019-06-08T01:25:33.669Z,20.48
2019-06-08T01:26:33.663Z,20.48
2019-06-08T01:27:33.641Z,20.49
2019-06-08T01:28:33.646Z,20.49
2019-06-08T01:29:33.678Z,20.50
2019-06-08T01:30:33.634Z,20.49
2019-06-08T01:31:33.642Z,20.48
2019-06-08T01:32:33.661Z,20.46
2019-06-08T01:33:33.572Z,20.50
2019-06-08T01:34:33.573Z,20.52
2019-06-08T01:35:33.606Z,20.52
2019-06-08T01:36:33.554Z,20.53
2019-06-08T01:37:33.535Z,20.60
2019-06-08T01:38:33.573Z,20.52
2019-06-08T01:39:33.508Z,20.55
2019-06-08T01:40:33.542Z,20.50
2019-06-08T01:41:33.546Z,20.50
2019-06-08T01:42:33.497Z,20.46
2019-06-08T01:43:33.474Z,20.48
2019-06-08T01:44:33.475Z,20.48
2019-06-08T01:45:33.506Z,20.46
2019-06-08T01:46:33.441Z,20.48
2019-06-08T01:47:33.453Z,20.48
2019-06-08T01:48:33.416Z,20.50
2019-06-08T01:49:33.426Z,20.49
2019-06-08T01:50:33.557Z,20.46
2019-06-08T01:51:33.428Z,20.42
2019-06-08T01:52:33.400Z,20.48
2019-06-08T01:53:33.358Z,20.46
2019-06-08T01:54:33.426Z,20.50
2019-06-08T01:55:33.363Z,20.36
2019-06-08T01:56:33.455Z,20.36
2019-06-08T01:57:33.795Z,20.29
2019-06-08T01:58:33.541Z,20.26
2019-06-08T01:59:34.741Z,20.17
2019-06-08T02:00:39.248Z,20.03
2019-06-08T02:01:34.301Z,19.99
2019-06-08T02:02:34.196Z,19.96
2019-06-08T02:03:34.781Z,19.74
2019-06-08T02:04:34.726Z,19.71
2019-06-08T02:05:34.450Z,19.53
2019-06-08T02:06:34.558Z,19.49
2019-06-08T02:07:34.295Z,19.44
2019-06-08T02:08:33.238Z,19.38
2019-06-08T02:09:33.193Z,19.37
2019-06-08T02:10:33.193Z,19.41
2019-06-08T02:11:33.187Z,19.39
2019-06-08T02:12:33.175Z,19.27
2019-06-08T02:13:33.208Z,19.27
2019-06-08T02:14:33.305Z,19.26
2019-06-08T02:15:33.867Z,19.20
2019-06-08T02:16:33.399Z,19.07
2019-06-08T02:17:33.502Z,19.01
2019-06-08T02:18:43.817Z,19.07
2019-06-08T02:19:34.801Z,18.96
2019-06-08T02:20:33.092Z,18.98
2019-06-08T02:21:33.068Z,19.00
2019-06-08T02:22:33.145Z,19.01
2019-06-08T02:23:33.170Z,19.00
2019-06-08T02:24:33.370Z,19.04
2019-06-08T02:25:33.562Z,18.97
2019-06-08T02:26:35.184Z,19.04
2019-06-08T02:27:33.569Z,19.00
2019-06-08T02:28:33.646Z,19.00
2019-06-08T02:29:33.717Z,18.91
2019-06-08T02:30:36.103Z,18.79
2019-06-08T02:31:34.797Z,18.79
2019-06-08T02:32:33.543Z,18.74
2019-06-08T02:33:34.691Z,18.81
2019-06-08T02:34:35.046Z,18.81
2019-06-08T02:35:35.074Z,18.76
2019-06-08T02:36:33.723Z,18.81
2019-06-08T02:37:33.165Z,18.67
2019-06-08T02:38:34.603Z,18.73
2019-06-08T02:39:32.942Z,18.79
2019-06-08T02:40:34.582Z,18.70
2019-06-08T02:41:33.181Z,18.71
2019-06-08T02:42:34.672Z,18.66
2019-06-08T02:43:33.375Z,18.61
2019-06-08T02:45:50.279Z,18.63
2019-06-08T02:47:00.291Z,18.61
2019-06-08T02:47:50.199Z,18.61
2019-06-08T02:49:03.939Z,18.46
2019-06-08T02:49:50.146Z,18.45
2019-06-08T02:50:59.167Z,18.45
2019-06-08T02:51:50.186Z,18.39
2019-06-08T02:52:50.137Z,18.43
2019-06-08T02:53:50.154Z,18.34
2019-06-08T02:54:50.146Z,18.37
2019-06-08T02:55:50.103Z,18.39
2019-06-08T02:56:50.088Z,18.33
2019-06-08T02:57:50.108Z,18.33
2019-06-08T02:58:50.104Z,18.39
2019-06-08T02:59:50.066Z,18.36
2019-06-08T03:00:50.060Z,18.36
2019-06-08T03:01:50.014Z,18.37
2019-06-08T03:02:50.031Z,18.33
2019-06-08T03:03:50.009Z,18.37
2019-06-08T03:04:50.034Z,18.37
2019-06-08T03:05:49.993Z,18.39
2019-06-08T03:06:50.037Z,18.36
2019-06-08T03:07:49.965Z,18.34
2019-06-08T03:08:50.005Z,18.41
2019-06-08T03:09:49.957Z,18.33
2019-06-08T03:10:49.951Z,18.43
2019-06-08T03:11:49.941Z,18.31
2019-06-08T03:12:49.934Z,18.27
2019-06-08T03:13:49.890Z,18.28
2019-06-08T03:14:49.949Z,18.23
2019-06-08T03:15:49.888Z,18.24
2019-06-08T03:16:49.904Z,18.24
2019-06-08T03:17:49.884Z,18.13
2019-06-08T03:18:49.881Z,18.16
2019-06-08T03:19:49.841Z,18.27
2019-06-08T03:20:49.825Z,18.21
2019-06-08T03:21:49.843Z,18.24
2019-06-08T03:22:49.810Z,18.21
2019-06-08T03:23:49.810Z,18.13
2019-06-08T03:24:49.847Z,18.15
2019-06-08T03:25:53.046Z,18.15
2019-06-08T03:26:49.838Z,18.24
2019-06-08T03:27:49.774Z,18.24
2019-06-08T03:28:49.761Z,18.23
2019-06-08T03:29:49.765Z,18.28
2019-06-08T03:30:54.451Z,18.13
2019-06-08T03:31:55.678Z,18.12
2019-06-08T03:32:56.430Z,18.15
2019-06-08T03:33:55.827Z,18.08
2019-06-08T03:34:55.716Z,18.02
2019-06-08T03:35:57.074Z,18.16
2019-06-08T03:36:56.128Z,18.11
2019-06-08T03:37:50.702Z,18.03
2019-06-08T03:38:49.636Z,18.16
2019-06-08T03:39:49.614Z,18.16
2019-06-08T03:40:49.625Z,18.06
2019-06-08T03:41:49.625Z,18.11
2019-06-08T03:42:50.975Z,18.06
2019-06-08T03:43:49.595Z,18.00
2019-06-08T03:44:49.585Z,17.98
2019-06-08T03:45:49.595Z,18.03
2019-06-08T03:46:49.589Z,17.98
2019-06-08T03:47:49.579Z,18.03
2019-06-08T03:48:49.560Z,17.93
2019-06-08T03:49:56.763Z,17.91
2019-06-08T03:50:50.520Z,17.91
2019-06-08T03:51:49.506Z,17.94
2019-06-08T03:52:49.478Z,17.87
2019-06-08T03:53:49.515Z,17.79
2019-06-08T03:54:49.477Z,17.72
2019-06-08T03:55:49.480Z,17.59
2019-06-08T03:56:49.446Z,17.49
2019-06-08T03:57:49.451Z,17.56
2019-06-08T03:58:49.464Z,17.46
2019-06-08T03:59:49.436Z,17.44
2019-06-08T04:00:49.406Z,17.44
2019-06-08T04:01:50.005Z,17.35
2019-06-08T04:04:07.124Z,17.31
2019-06-08T04:05:06.452Z,17.37
2019-06-08T04:06:06.422Z,17.27
2019-06-08T04:07:06.465Z,17.31
2019-06-08T04:08:06.412Z,17.27
2019-06-08T04:09:06.560Z,17.24
2019-06-08T04:10:06.392Z,17.35
2019-06-08T04:11:06.368Z,17.24
2019-06-08T04:12:06.364Z,17.39
2019-06-08T04:13:06.353Z,17.37
2019-06-08T04:14:06.347Z,17.32
2019-06-08T04:15:06.326Z,17.28
2019-06-08T04:16:06.346Z,17.28
2019-06-08T04:17:06.345Z,17.28
2019-06-08T04:18:06.301Z,17.27
2019-06-08T04:19:06.297Z,17.28
2019-06-08T04:20:11.236Z,17.37
2019-06-08T04:21:07.268Z,17.34
2019-06-08T04:22:06.257Z,17.42
2019-06-08T04:23:06.233Z,17.41
2019-06-08T04:24:06.298Z,17.37
2019-06-08T04:25:06.228Z,17.39
2019-06-08T04:26:06.218Z,17.38
2019-06-08T04:27:06.185Z,17.38
2019-06-08T04:28:06.235Z,17.49
2019-06-08T04:29:06.183Z,17.52
2019-06-08T04:30:06.196Z,17.44
2019-06-08T04:31:06.176Z,17.46
2019-06-08T04:32:06.184Z,17.52
2019-06-08T04:33:06.152Z,17.47
2019-06-08T04:34:06.149Z,17.52
2019-06-08T04:35:06.175Z,17.47
2019-06-08T04:36:06.098Z,17.53
2019-06-08T04:37:06.082Z,17.66
2019-06-08T04:38:06.093Z,17.56
2019-06-08T04:39:06.128Z,17.60
2019-06-08T04:40:06.042Z,17.68
2019-06-08T04:41:06.071Z,17.63
2019-06-08T04:42:06.071Z,17.66
2019-06-08T04:43:06.079Z,17.68
2019-06-08T04:44:06.036Z,17.75
2019-06-08T04:45:06.024Z,17.84
2019-06-08T04:46:05.991Z,17.76
2019-06-08T04:47:05.988Z,17.76
2019-06-08T04:48:09.496Z,17.86
2019-06-08T04:49:06.021Z,17.84
2019-06-08T04:50:21.466Z,17.87
2019-06-08T04:51:07.813Z,17.84
2019-06-08T04:52:05.966Z,17.84
2019-06-08T04:53:05.985Z,17.78
2019-06-08T04:54:05.917Z,17.82
2019-06-08T04:55:06.026Z,17.84
2019-06-08T04:56:09.207Z,17.88
2019-06-08T04:57:05.973Z,17.80
2019-06-08T04:58:05.891Z,17.88
2019-06-08T05:00:23.417Z,17.94
2019-06-08T05:01:23.341Z,17.87
2019-06-08T05:02:23.335Z,17.88
2019-06-08T05:03:23.296Z,17.86
2019-06-08T05:04:23.280Z,17.82
2019-06-08T05:05:24.081Z,17.79
2019-06-08T05:06:23.241Z,17.78
2019-06-08T05:07:23.221Z,17.75
2019-06-08T05:08:23.287Z,17.75
2019-06-08T05:09:32.170Z,17.68
2019-06-08T05:10:23.257Z,17.68
2019-06-08T05:11:23.165Z,17.72
2019-06-08T05:12:23.152Z,17.75
2019-06-08T05:13:23.254Z,17.65
2019-06-08T05:14:23.152Z,17.68
2019-06-08T05:15:23.197Z,17.63
2019-06-08T05:16:23.118Z,17.69
2019-06-08T05:17:23.162Z,17.66
2019-06-08T05:18:25.979Z,17.75
2019-06-08T05:19:23.081Z,17.63
2019-06-08T05:20:37.732Z,17.60
2019-06-08T05:21:24.089Z,17.65
2019-06-08T05:22:23.075Z,17.54
2019-06-08T05:23:23.025Z,17.63
2019-06-08T05:24:23.036Z,17.54
2019-06-08T05:25:23.036Z,17.54
2019-06-08T05:26:23.058Z,17.50
2019-06-08T05:27:23.022Z,17.46
2019-06-08T05:28:23.041Z,17.37
2019-06-08T05:29:23.041Z,17.41
2019-06-08T05:30:22.998Z,17.49
2019-06-08T05:31:22.965Z,17.52
2019-06-08T05:32:23.023Z,17.53
2019-06-08T05:33:22.977Z,17.63
2019-06-08T05:34:22.960Z,17.69
2019-06-08T05:35:22.947Z,17.78
2019-06-08T05:36:22.944Z,17.84
2019-06-08T05:37:22.995Z,17.91
2019-06-08T05:38:22.880Z,18.02
2019-06-08T05:39:22.914Z,17.98
2019-06-08T05:40:22.873Z,18.13
2019-06-08T05:41:24.198Z,18.23
2019-06-08T05:42:22.839Z,18.33
2019-06-08T05:43:22.883Z,18.34
2019-06-08T05:44:22.859Z,18.41
2019-06-08T05:45:22.803Z,18.28
2019-06-08T05:46:22.826Z,18.27
2019-06-08T05:47:22.811Z,18.33
2019-06-08T05:48:22.784Z,18.37
2019-06-08T05:49:22.764Z,18.46
2019-06-08T05:50:22.782Z,18.58
2019-06-08T05:51:22.758Z,18.66
2019-06-08T05:52:22.773Z,18.68
2019-06-08T05:53:22.752Z,18.68
2019-06-08T05:54:22.794Z,18.74
2019-06-08T05:55:22.751Z,18.73
2019-06-08T05:56:22.701Z,18.70
2019-06-08T05:57:22.717Z,18.79
2019-06-08T05:58:22.682Z,18.76
2019-06-08T05:59:22.670Z,18.79
2019-06-08T06:00:22.668Z,18.96
2019-06-08T06:01:23.671Z,18.89
2019-06-08T06:02:22.624Z,19.00
2019-06-08T06:03:22.627Z,18.98
2019-06-08T06:04:22.611Z,19.15
2019-06-08T06:05:22.586Z,19.20
2019-06-08T06:06:22.705Z,19.26
2019-06-08T06:07:22.637Z,19.22
2019-06-08T06:08:22.564Z,19.32
2019-06-08T06:09:22.585Z,19.37
2019-06-08T06:10:22.725Z,19.44
2019-06-08T06:11:22.600Z,19.49
2019-06-08T06:12:23.354Z,19.44
2019-06-08T06:13:23.357Z,19.37
2019-06-08T06:14:22.511Z,19.32
2019-06-08T06:15:22.491Z,19.59
2019-06-08T06:16:22.526Z,19.60
2019-06-08T06:17:22.539Z,19.75
2019-06-08T06:18:22.443Z,19.93
2019-06-08T06:19:22.447Z,19.84
2019-06-08T06:20:22.505Z,20.02
2019-06-08T06:21:22.423Z,20.11
2019-06-08T06:22:22.631Z,20.21
2019-06-08T06:23:22.405Z,20.30
2019-06-08T06:24:22.431Z,20.42
2019-06-08T06:25:22.457Z,20.49
2019-06-08T06:26:22.370Z,20.64
2019-06-08T06:27:22.429Z,20.64
2019-06-08T06:28:22.436Z,20.46
2019-06-08T06:29:22.376Z,20.55
2019-06-08T06:30:22.381Z,20.59
2019-06-08T06:31:22.342Z,20.68
2019-06-08T06:32:22.328Z,20.74
2019-06-08T06:33:22.334Z,20.48
2019-06-08T06:34:22.409Z,20.46
2019-06-08T06:35:22.296Z,20.33
2019-06-08T06:36:22.264Z,20.19
2019-06-08T06:37:22.361Z,19.97
2019-06-08T06:38:22.329Z,19.78
2019-06-08T06:39:22.334Z,19.75
2019-06-08T06:40:22.645Z,19.59
2019-06-08T06:41:22.420Z,19.56
2019-06-08T06:42:24.788Z,19.64
2019-06-08T06:43:22.545Z,19.77
2019-06-08T06:44:22.583Z,20.00
2019-06-08T06:45:22.395Z,20.10
2019-06-08T06:46:22.268Z,20.07
2019-06-08T06:47:22.259Z,20.21
2019-06-08T06:48:23.610Z,20.37
2019-06-08T06:49:22.214Z,20.50
2019-06-08T06:50:22.233Z,20.52
2019-06-08T06:51:26.225Z,20.59
2019-06-08T06:52:22.249Z,20.60
2019-06-08T06:53:22.708Z,20.60
2019-06-08T06:54:22.162Z,20.71
2019-06-08T06:55:25.231Z,20.74
2019-06-08T06:56:22.224Z,20.83
2019-06-08T06:57:22.217Z,20.93
2019-06-08T06:58:22.182Z,21.11
2019-06-08T06:59:22.198Z,21.32
2019-06-08T07:00:22.190Z,21.19
2019-06-08T07:01:22.098Z,21.41
2019-06-08T07:02:22.625Z,21.37
2019-06-08T07:03:22.623Z,21.51
2019-06-08T07:04:22.101Z,21.59
2019-06-08T07:05:22.113Z,21.59
2019-06-08T07:06:22.052Z,21.43
2019-06-08T07:07:22.113Z,21.51
2019-06-08T07:08:22.155Z,21.38
2019-06-08T07:09:22.010Z,21.38
2019-06-08T07:10:22.273Z,21.22
2019-06-08T07:11:21.909Z,21.22
2019-06-08T07:12:21.918Z,21.17
2019-06-08T07:13:22.118Z,21.20
2019-06-08T07:14:21.869Z,21.04
2019-06-08T07:15:21.897Z,20.96
2019-06-08T07:16:21.877Z,20.95
2019-06-08T07:17:21.830Z,20.78
2019-06-08T07:18:21.846Z,20.77
2019-06-08T07:19:21.812Z,20.66
2019-06-08T07:20:21.840Z,20.71
2019-06-08T07:21:21.880Z,20.75
2019-06-08T07:22:21.779Z,20.75
2019-06-08T07:23:21.759Z,20.88
2019-06-08T07:24:21.787Z,21.03
2019-06-08T07:25:21.743Z,21.11
2019-06-08T07:26:21.746Z,21.11
2019-06-08T07:27:21.727Z,21.03
2019-06-08T07:28:21.688Z,21.10
2019-06-08T07:29:21.688Z,21.22
2019-06-08T07:30:21.747Z,21.48
2019-06-08T07:31:21.689Z,21.72
2019-06-08T07:32:21.677Z,21.89
2019-06-08T07:33:21.670Z,21.88
2019-06-08T07:34:21.654Z,21.99
2019-06-08T07:35:21.632Z,22.06
2019-06-08T07:36:21.654Z,21.99
2019-06-08T07:37:21.601Z,21.88
2019-06-08T07:38:21.643Z,21.83
2019-06-08T07:39:21.605Z,21.91
2019-06-08T07:40:21.602Z,21.85
2019-06-08T07:41:21.587Z,21.59
2019-06-08T07:42:21.605Z,21.43
2019-06-08T07:43:21.613Z,21.19
2019-06-08T07:44:21.534Z,21.13
2019-06-08T07:45:21.520Z,21.00
2019-06-08T07:46:21.547Z,20.78
2019-06-08T07:47:21.737Z,20.73
2019-06-08T07:48:21.501Z,20.67
2019-06-08T07:49:21.516Z,20.67
2019-06-08T07:50:21.502Z,20.59
2019-06-08T07:51:21.518Z,20.50
2019-06-08T07:52:21.480Z,20.42
2019-06-08T07:53:21.476Z,20.39
2019-06-08T07:54:21.450Z,20.52
2019-06-08T07:55:21.430Z,20.36
2019-06-08T07:56:21.432Z,20.48
2019-06-08T07:57:21.413Z,20.37
2019-06-08T07:58:21.393Z,20.50
2019-06-08T07:59:21.390Z,20.44
2019-06-08T08:00:21.371Z,20.49
2019-06-08T08:01:35.256Z,20.52
2019-06-08T08:02:22.424Z,20.46
2019-06-08T08:03:21.394Z,20.52
2019-06-08T08:04:21.310Z,20.50
2019-06-08T08:05:21.367Z,20.33
2019-06-08T08:06:21.416Z,20.30
2019-06-08T08:07:21.287Z,20.26
2019-06-08T08:08:21.310Z,20.36
2019-06-08T08:09:21.318Z,20.42
2019-06-08T08:10:21.296Z,20.56
2019-06-08T08:11:21.315Z,20.60
2019-06-08T08:12:21.336Z,20.60
2019-06-08T08:13:21.221Z,20.67
2019-06-08T08:14:21.233Z,20.64
2019-06-08T08:15:21.191Z,20.70
2019-06-08T08:16:21.221Z,20.68
2019-06-08T08:17:21.203Z,20.49
2019-06-08T08:18:21.162Z,20.58
2019-06-08T08:19:21.206Z,20.48
2019-06-08T08:20:21.161Z,20.48
2019-06-08T08:21:25.509Z,20.40
2019-06-08T08:22:26.023Z,20.24
2019-06-08T08:23:22.200Z,20.22
2019-06-08T08:24:21.277Z,20.07
2019-06-08T08:25:21.130Z,20.08
2019-06-08T08:26:21.088Z,19.99
2019-06-08T08:27:21.459Z,19.94
2019-06-08T08:28:21.054Z,19.90
2019-06-08T08:29:21.088Z,19.87
2019-06-08T08:30:21.051Z,19.89
2019-06-08T08:31:21.023Z,19.94
2019-06-08T08:32:21.032Z,19.94
2019-06-08T08:33:21.096Z,19.94
2019-06-08T08:34:21.001Z,19.94
2019-06-08T08:35:20.991Z,19.96
2019-06-08T08:36:21.152Z,19.97
2019-06-08T08:37:20.969Z,20.14
2019-06-08T08:38:20.990Z,20.11
2019-06-08T08:39:20.971Z,20.14
2019-06-08T08:40:20.944Z,20.11
2019-06-08T08:41:20.982Z,20.15
2019-06-08T08:42:20.938Z,20.11
2019-06-08T08:43:23.011Z,20.12
2019-06-08T08:44:20.880Z,20.22
2019-06-08T08:45:20.891Z,20.26
2019-06-08T08:46:20.943Z,20.26
2019-06-08T08:47:21.126Z,20.29
2019-06-08T08:48:27.521Z,20.32
2019-06-08T08:49:21.869Z,20.33
2019-06-08T08:50:20.863Z,20.24
2019-06-08T08:51:20.801Z,20.32
2019-06-08T08:52:33.724Z,20.27
2019-06-08T08:53:21.816Z,20.27
2019-06-08T08:54:20.782Z,20.15
2019-06-08T08:55:20.781Z,20.17
2019-06-08T08:56:20.778Z,20.17
2019-06-08T08:57:20.785Z,20.17
2019-06-08T08:58:20.754Z,20.07
2019-06-08T08:59:20.747Z,20.07
2019-06-08T09:00:20.842Z,20.12
2019-06-08T09:01:20.896Z,20.14
2019-06-08T09:02:21.393Z,20.21
2019-06-08T09:03:28.710Z,20.33
2019-06-08T09:04:21.725Z,20.42
2019-06-08T09:05:20.683Z,20.58
2019-06-08T09:06:20.666Z,20.59
2019-06-08T09:07:20.760Z,20.74
2019-06-08T09:08:23.215Z,20.74
2019-06-08T09:09:21.649Z,20.77
2019-06-08T09:10:20.629Z,20.78
2019-06-08T09:11:20.634Z,20.83
2019-06-08T09:12:20.571Z,20.78
2019-06-08T09:13:20.816Z,20.92
2019-06-08T09:14:20.727Z,21.13
2019-06-08T09:15:20.726Z,21.22
2019-06-08T09:16:22.711Z,21.28
2019-06-08T09:17:21.060Z,21.23
2019-06-08T09:18:20.563Z,21.13
2019-06-08T09:19:20.997Z,21.20
2019-06-08T09:20:20.589Z,21.20
2019-06-08T09:21:20.551Z,21.01
2019-06-08T09:22:20.501Z,20.92
2019-06-08T09:23:21.920Z,20.75
2019-06-08T09:24:20.459Z,20.75
2019-06-08T09:25:20.436Z,20.68
2019-06-08T09:26:20.420Z,20.60
2019-06-08T09:27:20.602Z,20.55
2019-06-08T09:28:20.510Z,20.58
2019-06-08T09:29:20.380Z,20.50
2019-06-08T09:30:20.724Z,20.64
2019-06-08T09:31:20.410Z,20.67
2019-06-08T09:32:20.431Z,20.78
2019-06-08T09:33:20.356Z,20.80
2019-06-08T09:34:20.450Z,20.71
2019-06-08T09:35:21.348Z,20.77
2019-06-08T09:36:20.343Z,20.60
2019-06-08T09:37:20.384Z,20.63
2019-06-08T09:38:20.349Z,20.73
2019-06-08T09:39:20.314Z,20.86
2019-06-08T09:40:22.184Z,20.80
2019-06-08T09:41:21.214Z,20.70
2019-06-08T09:42:21.219Z,20.68
2019-06-08T09:43:20.319Z,20.59
2019-06-08T09:44:20.626Z,20.60
2019-06-08T09:45:20.347Z,20.67
2019-06-08T09:46:20.288Z,20.92
2019-06-08T09:47:22.296Z,20.98
2019-06-08T09:48:20.259Z,21.13
2019-06-08T09:49:20.169Z,21.32
2019-06-08T09:50:21.272Z,21.45
2019-06-08T09:51:20.148Z,21.45
2019-06-08T09:52:21.713Z,21.50
2019-06-08T09:53:28.519Z,21.50
2019-06-08T09:54:21.171Z,21.48
2019-06-08T09:55:20.221Z,21.60
2019-06-08T09:56:20.288Z,21.72
2019-06-08T09:57:20.106Z,21.72
2019-06-08T09:58:20.105Z,21.84
2019-06-08T09:59:20.110Z,21.69
2019-06-08T10:00:22.249Z,21.75
2019-06-08T10:01:21.113Z,21.69
2019-06-08T10:02:20.322Z,21.35
2019-06-08T10:03:20.046Z,21.17
2019-06-08T10:04:20.036Z,21.13
2019-06-08T10:05:20.070Z,20.93
2019-06-08T10:06:20.436Z,20.82
2019-06-08T10:07:20.153Z,20.78
2019-06-08T10:08:20.742Z,20.70
2019-06-08T10:09:20.033Z,20.83
2019-06-08T10:10:19.975Z,20.78
2019-06-08T10:11:19.952Z,20.82
2019-06-08T10:12:19.947Z,20.78
2019-06-08T10:13:19.975Z,20.82
2019-06-08T10:14:19.996Z,20.75
2019-06-08T10:15:19.937Z,20.68
2019-06-08T10:16:19.967Z,20.88
2019-06-08T10:17:21.071Z,20.88
2019-06-08T10:18:19.913Z,20.95
2019-06-08T10:19:19.909Z,21.25
2019-06-08T10:20:19.927Z,21.25
2019-06-08T10:21:21.126Z,21.29
2019-06-08T10:22:20.087Z,21.30
2019-06-08T10:23:30.718Z,21.30
2019-06-08T10:24:21.018Z,21.23
2019-06-08T10:25:20.802Z,21.19
2019-06-08T10:26:19.999Z,21.11
2019-06-08T10:27:19.824Z,21.14
2019-06-08T10:28:21.706Z,21.08
2019-06-08T10:29:19.911Z,20.93
2019-06-08T10:30:19.772Z,20.78
2019-06-08T10:31:33.169Z,20.78
2019-06-08T10:32:20.773Z,20.66
2019-06-08T10:33:20.189Z,20.83
2019-06-08T10:34:19.714Z,20.83
2019-06-08T10:35:21.011Z,20.68
2019-06-08T10:36:19.713Z,20.86
2019-06-08T10:37:19.731Z,20.85
2019-06-08T10:38:19.716Z,20.78
2019-06-08T10:39:19.649Z,20.95
2019-06-08T10:40:19.681Z,20.89
2019-06-08T10:41:21.836Z,21.05
2019-06-08T10:42:19.696Z,21.20
2019-06-08T10:43:20.013Z,21.40
2019-06-08T10:44:19.721Z,21.48
2019-06-08T10:45:19.676Z,21.60
2019-06-08T10:46:20.970Z,21.70
2019-06-08T10:47:19.613Z,21.78
2019-06-08T10:48:19.578Z,21.94
2019-06-08T10:49:19.854Z,22.00
2019-06-08T10:50:19.629Z,22.12
2019-06-08T10:51:19.577Z,22.01
2019-06-08T10:52:20.349Z,22.23
2019-06-08T10:53:19.516Z,22.31
2019-06-08T10:54:19.585Z,22.38
2019-06-08T10:55:19.560Z,22.61
2019-06-08T10:56:19.519Z,22.63
2019-06-08T10:57:19.499Z,22.59
2019-06-08T10:58:19.620Z,22.52
2019-06-08T10:59:19.462Z,22.46
2019-06-08T11:00:23.569Z,22.37
2019-06-08T11:01:19.518Z,22.36
2019-06-08T11:02:20.236Z,22.38
2019-06-08T11:03:19.449Z,22.49
2019-06-08T11:04:19.835Z,22.47
2019-06-08T11:05:19.470Z,22.49
2019-06-08T11:06:19.376Z,22.70
2019-06-08T11:07:19.396Z,22.71
2019-06-08T11:08:19.369Z,22.74
2019-06-08T11:09:20.345Z,22.91
2019-06-08T11:10:20.204Z,22.86
2019-06-08T11:11:20.182Z,22.71
2019-06-08T11:12:19.460Z,22.47
2019-06-08T11:13:19.288Z,22.33
2019-06-08T11:14:22.553Z,22.28
2019-06-08T11:15:19.290Z,22.22
2019-06-08T11:16:19.325Z,22.18
2019-06-08T11:17:19.301Z,22.21
2019-06-08T11:18:20.545Z,22.16
2019-06-08T11:19:20.378Z,22.01
2019-06-08T11:20:19.225Z,22.03
2019-06-08T11:21:21.966Z,22.23
2019-06-08T11:22:19.224Z,22.30
2019-06-08T11:23:19.174Z,22.22
2019-06-08T11:24:24.668Z,22.25
2019-06-08T11:25:20.337Z,22.14
2019-06-08T11:26:24.026Z,22.16
2019-06-08T11:27:20.175Z,22.15
2019-06-08T11:28:19.205Z,22.10
2019-06-08T11:29:19.118Z,22.08
2019-06-08T11:30:26.709Z,22.10
2019-06-08T11:31:20.320Z,22.14
2019-06-08T11:32:22.002Z,22.18
2019-06-08T11:33:19.710Z,22.25
2019-06-08T11:34:21.755Z,22.22
2019-06-08T11:35:19.127Z,22.34
2019-06-08T11:36:19.262Z,22.28
2019-06-08T11:37:21.072Z,22.26
2019-06-08T11:38:20.282Z,22.33
2019-06-08T11:39:19.030Z,22.43
2019-06-08T11:40:20.851Z,22.40
2019-06-08T11:41:22.626Z,22.51
2019-06-08T11:42:19.247Z,22.63
2019-06-08T11:43:18.961Z,22.78
2019-06-08T11:44:18.951Z,23.02
2019-06-08T11:45:18.985Z,22.98
2019-06-08T11:46:21.585Z,23.02
2019-06-08T11:47:18.927Z,23.08
2019-06-08T11:48:18.921Z,23.01
2019-06-08T11:49:19.021Z,22.81
2019-06-08T11:50:18.888Z,22.81
2019-06-08T11:51:18.904Z,22.96
2019-06-08T11:52:19.795Z,22.99
2019-06-08T11:53:18.849Z,23.13
2019-06-08T11:54:33.027Z,23.20
2019-06-08T11:55:19.830Z,23.11
2019-06-08T11:56:18.881Z,23.02
2019-06-08T11:57:21.791Z,22.98
2019-06-08T11:58:22.707Z,23.08
2019-06-08T11:59:18.810Z,23.02
2019-06-08T12:00:27.421Z,23.11
2019-06-08T12:01:19.822Z,23.08
2019-06-08T12:02:19.368Z,23.16
2019-06-08T12:03:18.762Z,23.28
2019-06-08T12:04:18.740Z,23.39
2019-06-08T12:05:18.717Z,23.44
2019-06-08T12:06:18.781Z,23.42
2019-06-08T12:07:18.690Z,23.44
2019-06-08T12:08:20.901Z,23.49
2019-06-08T12:09:19.094Z,23.76
2019-06-08T12:10:18.717Z,23.86
2019-06-08T12:11:20.861Z,23.82
2019-06-08T12:12:21.176Z,23.79
2019-06-08T12:13:18.663Z,23.86
2019-06-08T12:14:18.652Z,23.74
2019-06-08T12:15:21.194Z,23.95
2019-06-08T12:16:22.029Z,23.74
2019-06-08T12:17:22.215Z,24.04
2019-06-08T12:18:18.601Z,24.21
2019-06-08T12:19:20.943Z,24.25
2019-06-08T12:20:21.279Z,24.28
2019-06-08T12:21:19.570Z,24.61
2019-06-08T12:22:21.647Z,24.75
2019-06-08T12:23:18.531Z,25.04
2019-06-08T12:24:18.562Z,25.15
2019-06-08T12:25:18.525Z,25.14
2019-06-08T12:26:18.650Z,25.66
2019-06-08T12:27:29.106Z,26.36
2019-06-08T12:28:19.517Z,26.76
2019-06-08T12:29:19.028Z,27.00
2019-06-08T12:30:25.655Z,27.61
2019-06-08T12:31:22.494Z,28.16
2019-06-08T12:32:18.542Z,28.62
2019-06-08T12:33:19.837Z,28.94
2019-06-08T12:34:18.668Z,29.40
2019-06-08T12:35:18.445Z,29.49
2019-06-08T12:36:20.576Z,29.73
2019-06-08T12:37:22.179Z,30.03
2019-06-08T12:38:19.024Z,29.90
2019-06-08T12:39:19.763Z,30.31
2019-06-08T12:40:20.450Z,30.69
2019-06-08T12:41:19.377Z,31.10
2019-06-08T12:42:23.258Z,31.20
2019-06-08T12:43:20.357Z,31.32
2019-06-08T12:44:20.365Z,30.48
2019-06-08T12:45:20.016Z,30.62
2019-06-08T12:46:20.921Z,30.44
2019-06-08T12:47:24.705Z,29.18
2019-06-08T12:48:23.500Z,28.13
2019-06-08T12:49:20.495Z,27.60
2019-06-08T12:50:18.266Z,27.40
2019-06-08T12:51:19.920Z,27.68
2019-06-08T12:52:21.975Z,28.19
2019-06-08T12:53:28.320Z,28.65
2019-06-08T12:54:19.396Z,29.10
2019-06-08T12:55:23.179Z,29.32
2019-06-08T12:56:23.806Z,29.31